Time;durP1;ratioP1;P1;durP2;ratioP2;P2;SDS_P1;SDS_P2;PMS_P1;PMS_P2;Temp;Humidity;BMP_temperature;BMP_pressure;BME280_temperature;BME280_humidity;BME280_pressure;Samples;Min_cycle;Max_cycle;Signal;HPM_P1;HPM_P2
2021/03/02 00:01:01;;;;;;;32.00;10.27;;;0.80;91.90;;;;;;5095401;28;20170;-83
2021/03/02 00:03:36;;;;;;;11.30;10.20;;;0.80;91.80;;;;;;5095092;28;20196;-84
2021/03/02 00:06:11;;;;;;;11.40;10.30;;;0.80;91.80;;;;;;5077046;28;20175;-84
2021/03/02 00:08:48;;;;;;;11.77;10.57;;;0.90;91.70;;;;;;5077267;28;20180;-83
2021/03/02 00:11:21;;;;;;;11.80;10.60;;;0.90;91.60;;;;;;5095504;28;20163;-83
2021/03/02 00:13:59;;;;;;;43.23;10.60;;;0.90;91.70;;;;;;5077041;28;20285;-83
2021/03/02 00:16:29;;;;;;;11.23;10.13;;;0.90;91.70;;;;;;5095511;28;20184;-83
2021/03/02 00:19:12;;;;;;;59.90;12.67;;;1.00;91.60;;;;;;5095104;28;20228;-82
2021/03/02 00:21:54;;;;;;;17.03;10.90;;;1.00;91.70;;;;;;5094982;28;20170;-83
2021/03/02 00:24:34;;;;;;;38.97;11.57;;;1.00;91.70;;;;;;5094352;28;20209;-83
2021/03/02 00:27:03;;;;;;;95.07;12.53;;;1.00;91.70;;;;;;5095085;28;20159;-83
2021/03/02 00:29:37;;;;;;;86.17;12.37;;;1.00;91.90;;;;;;5094681;28;20177;-82
2021/03/02 00:32:03;;;;;;;112.63;12.17;;;0.80;92.00;;;;;;5076525;28;20173;-82
2021/03/02 00:34:31;;;;;;;91.97;14.63;;;0.60;92.30;;;;;;5076441;28;20262;-83
2021/03/02 00:37:01;;;;;;;79.73;13.33;;;0.40;92.50;;;;;;5094488;28;20194;-83
2021/03/02 00:39:37;;;;;;;122.17;15.50;;;0.40;92.70;;;;;;5094496;28;20163;-82
2021/03/02 00:42:07;;;;;;;17.20;13.27;;;0.40;92.90;;;;;;5094758;28;20245;-82
2021/03/02 00:44:38;;;;;;;83.40;14.27;;;0.50;93.00;;;;;;5076347;28;20255;-83
2021/03/02 00:47:11;;;;;;;28.37;13.73;;;0.50;93.00;;;;;;5094775;28;20173;-82
2021/03/02 00:49:40;;;;;;;19.07;13.43;;;0.60;93.10;;;;;;5094387;28;20176;-82
2021/03/02 00:52:16;;;;;;;28.37;13.27;;;0.60;93.10;;;;;;5094300;28;20250;-84
2021/03/02 00:54:51;;;;;;;34.20;12.60;;;0.70;93.10;;;;;;5075953;28;20218;-83
2021/03/02 00:57:21;;;;;;;13.77;12.40;;;0.70;93.00;;;;;;5094401;28;20186;-83
2021/03/02 00:59:58;;;;;;;32.83;13.13;;;0.70;93.00;;;;;;5075956;28;20244;-83
2021/03/02 01:02:29;;;;;;;23.87;12.93;;;0.70;93.10;;;;;;5076032;28;20175;-83
2021/03/02 01:05:04;;;;;;;58.90;14.30;;;0.80;93.10;;;;;;5075761;28;20195;-83
2021/03/02 01:07:40;;;;;;;85.93;12.17;;;0.70;93.00;;;;;;5094026;28;20172;-83
2021/03/02 01:10:08;;;;;;;66.13;12.60;;;0.40;93.10;;;;;;5094461;28;20606;-83
2021/03/02 01:12:34;;;;;;;106.47;12.27;;;0.40;93.20;;;;;;5094017;28;20646;-82
2021/03/02 01:15:12;;;;;;;82.50;12.30;;;0.30;93.40;;;;;;5075900;28;20201;-83
2021/03/02 01:17:46;;;;;;;64.07;12.40;;;0.30;93.40;;;;;;5075789;28;20623;-82
2021/03/02 01:20:17;;;;;;;46.03;13.20;;;0.30;93.50;;;;;;5093983;28;20649;-82
2021/03/02 01:22:54;;;;;;;51.60;14.83;;;0.40;93.70;;;;;;5075539;28;20265;-82
2021/03/02 01:25:27;;;;;;;89.03;14.80;;;0.50;93.80;;;;;;5075530;28;20227;-82
2021/03/02 01:28:03;;;;;;;98.83;15.73;;;0.50;93.90;;;;;;5094015;28;20159;-83
2021/03/02 01:30:36;;;;;;;42.07;14.77;;;0.50;93.90;;;;;;5093750;28;20151;-82
2021/03/02 01:33:08;;;;;;;26.93;15.73;;;0.50;94.00;;;;;;5093719;28;20166;-82
2021/03/02 01:35:34;;;;;;;18.27;14.63;;;0.60;94.00;;;;;;5074942;28;20710;-82
2021/03/02 01:38:09;;;;;;;78.47;16.20;;;0.60;94.00;;;;;;5093627;28;20221;-82
2021/03/02 01:40:41;;;;;;;67.17;15.50;;;0.70;94.10;;;;;;5075464;28;20179;-83
2021/03/02 01:43:18;;;;;;;69.10;14.70;;;0.70;94.10;;;;;;5075342;28;20172;-82
2021/03/02 01:45:44;;;;;;;61.20;14.30;;;0.70;94.00;;;;;;5093798;28;20174;-83
2021/03/02 01:48:20;;;;;;;73.87;15.23;;;0.80;94.10;;;;;;5075424;28;20167;-82
2021/03/02 01:50:51;;;;;;;40.63;15.00;;;0.60;94.10;;;;;;5093708;28;20155;-82
2021/03/02 01:53:27;;;;;;;120.67;17.07;;;0.60;94.20;;;;;;5093358;28;20185;-83
2021/03/02 01:56:00;;;;;;;74.63;16.37;;;0.60;94.30;;;;;;5093731;28;20239;-83
2021/03/02 01:58:33;;;;;;;54.97;16.27;;;0.70;94.40;;;;;;5093430;28;20171;-83
2021/03/02 02:01:10;;;;;;;66.83;16.57;;;0.70;94.50;;;;;;5093627;28;20624;-83
2021/03/02 02:04:07;;;;;;;47.37;17.40;;;0.60;94.60;;;;;;5093256;28;20221;-83
2021/03/02 02:06:51;;;;;;;68.53;18.83;;;0.50;94.80;;;;;;5075232;28;20650;-82
2021/03/02 02:09:49;;;;;;;51.70;17.93;;;0.50;94.90;;;;;;5093632;28;20535;-83
2021/03/02 02:12:25;;;;;;;82.27;18.10;;;0.40;94.90;;;;;;5075294;28;20170;-82
2021/03/02 02:15:11;;;;;;;74.43;19.07;;;0.40;95.10;;;;;;5075225;28;20208;-83
2021/03/02 02:17:44;;;;;;;71.97;22.17;;;0.30;95.10;;;;;;5093095;28;20225;-83
2021/03/02 02:20:27;;;;;;;106.43;21.50;;;0.30;95.20;;;;;;5075162;28;20170;-82
2021/03/02 02:23:20;;;;;;;81.43;20.60;;;0.20;95.30;;;;;;5093265;28;20179;-83
2021/03/02 02:26:11;;;;;;;82.03;19.73;;;0.30;95.40;;;;;;5093211;28;20614;-83
2021/03/02 02:28:45;;;;;;;98.43;20.33;;;0.40;95.40;;;;;;5093219;28;20171;-83
2021/03/02 02:31:20;;;;;;;96.67;19.90;;;0.30;95.40;;;;;;5092972;28;20173;-83
2021/03/02 02:33:54;;;;;;;79.97;19.23;;;0.30;95.40;;;;;;5093059;28;20197;-83
2021/03/02 02:36:28;;;;;;;92.50;21.73;;;0.30;95.40;;;;;;5092956;28;20269;-83
2021/03/02 02:38:57;;;;;;;81.03;20.50;;;0.30;95.50;;;;;;5093067;28;20155;-83
2021/03/02 02:41:27;;;;;;;117.30;22.60;;;0.20;95.50;;;;;;5092997;28;20175;-83
2021/03/02 02:44:00;;;;;;;67.63;20.60;;;0.30;95.50;;;;;;5093073;28;20218;-83
2021/03/02 02:46:27;;;;;;;80.47;21.60;;;0.30;95.60;;;;;;5092896;28;20251;-83
2021/03/02 02:49:03;;;;;;;96.50;24.13;;;0.30;95.60;;;;;;5078011;28;20278;-82
2021/03/02 02:51:29;;;;;;;82.23;23.37;;;0.30;95.60;;;;;;5078483;28;20179;-82
2021/03/02 02:54:04;;;;;;;69.77;21.87;;;0.20;95.70;;;;;;5096584;28;20207;-82
2021/03/02 02:56:41;;;;;;;57.53;20.40;;;0.30;95.70;;;;;;5078295;28;20207;-83
2021/03/02 02:59:19;;;;;;;53.17;20.60;;;0.30;95.80;;;;;;5096635;28;20170;-83
2021/03/02 03:01:52;;;;;;;70.33;22.33;;;0.30;95.80;;;;;;5096680;28;20178;-83
2021/03/02 03:04:28;;;;;;;67.37;21.97;;;0.40;95.80;;;;;;5096488;28;20227;-83
2021/03/02 03:07:03;;;;;;;59.00;21.73;;;0.40;95.80;;;;;;5096538;28;20250;-83
2021/03/02 03:09:35;;;;;;;71.80;21.60;;;0.40;95.80;;;;;;5096397;28;20185;-83
2021/03/02 03:12:13;;;;;;;52.90;20.50;;;0.30;95.70;;;;;;5096270;28;20605;-83
2021/03/02 03:14:56;;;;;;;59.00;21.87;;;0.30;95.80;;;;;;5078069;28;20194;-85
2021/03/02 03:17:30;;;;;;;81.93;22.03;;;0.30;95.80;;;;;;5078912;28;20615;-83
2021/03/02 03:20:08;;;;;;;70.63;23.60;;;0.20;95.90;;;;;;5096253;28;20621;-83
2021/03/02 03:22:35;;;;;;;91.20;24.97;;;0.20;95.90;;;;;;5096421;28;20591;-83
2021/03/02 03:25:10;;;;;;;62.90;22.70;;;0.30;96.00;;;;;;5096073;28;20734;-83
2021/03/02 03:27:49;;;;;;;90.90;24.77;;;0.20;96.00;;;;;;5096187;28;20191;-83
2021/03/02 03:30:16;;;;;;;118.30;25.90;;;0.20;96.00;;;;;;5096114;28;20622;-84
2021/03/02 03:33:04;;;;;;;180.37;29.17;;;0.20;96.10;;;;;;5095933;28;20261;-83
2021/03/02 03:35:41;;;;;;;137.23;27.40;;;0.20;96.10;;;;;;5077737;28;20174;-83
2021/03/02 03:38:13;;;;;;;158.87;29.23;;;0.20;96.20;;;;;;5096122;28;20183;-83
2021/03/02 03:40:46;;;;;;;157.30;29.67;;;0.20;96.20;;;;;;5095843;28;20167;-84
2021/03/02 03:43:20;;;;;;;175.43;29.23;;;0.20;96.20;;;;;;5095731;28;20159;-83
2021/03/02 03:45:56;;;;;;;149.97;29.23;;;0.20;96.20;;;;;;5095743;28;20154;-83
2021/03/02 03:48:25;;;;;;;127.93;28.50;;;0.20;96.30;;;;;;5095667;28;20235;-83
2021/03/02 03:51:01;;;;;;;152.03;29.73;;;0.20;96.30;;;;;;5095648;28;20163;-83
2021/03/02 03:53:37;;;;;;;196.83;32.97;;;0.20;96.30;;;;;;5095703;28;20262;-83
2021/03/02 03:56:12;;;;;;;203.57;34.03;;;0.10;96.30;;;;;;5095713;28;20186;-83
2021/03/02 03:58:46;;;;;;;156.83;31.40;;;0.10;96.40;;;;;;5095011;28;20177;-83
2021/03/02 04:01:19;;;;;;;145.10;30.23;;;0.10;96.40;;;;;;5095477;28;20161;-83
2021/03/02 04:03:54;;;;;;;165.63;30.53;;;0.10;96.40;;;;;;5095293;28;20236;-83
2021/03/02 04:06:30;;;;;;;144.57;29.33;;;0.00;96.40;;;;;;5095417;28;20158;-83
2021/03/02 04:09:01;;;;;;;206.33;34.57;;;0.00;96.40;;;;;;5077608;28;20182;-83
2021/03/02 04:11:27;;;;;;;157.63;32.63;;;0.00;96.40;;;;;;5077095;28;20599;-83
2021/03/02 04:14:00;;;;;;;206.10;34.83;;;0.00;96.50;;;;;;5095038;28;20194;-83
2021/03/02 04:16:31;;;;;;;103.27;28.00;;;0.00;96.40;;;;;;5076898;28;20200;-83
2021/03/02 04:19:04;;;;;;;205.93;34.03;;;0.00;96.50;;;;;;5095156;28;20171;-83
2021/03/02 04:21:40;;;;;;;181.53;32.63;;;0.00;96.40;;;;;;5076956;28;20170;-83
2021/03/02 04:24:12;;;;;;;174.23;32.87;;;0.00;96.50;;;;;;5204956;22;20226;-84
2021/03/02 04:26:43;;;;;;;184.40;34.90;;;0.00;96.50;;;;;;5076728;28;20267;-84
2021/03/02 04:29:17;;;;;;;135.30;31.03;;;0.00;96.50;;;;;;5076752;28;20186;-84
2021/03/02 04:31:53;;;;;;;167.77;32.03;;;0.00;96.50;;;;;;5095065;28;20626;-84
2021/03/02 04:34:26;;;;;;;126.50;32.63;;;0.10;96.50;;;;;;5094727;28;20666;-84
2021/03/02 04:36:58;;;;;;;161.67;33.43;;;0.10;96.50;;;;;;5094469;28;20235;-84
2021/03/02 04:39:28;;;;;;;163.67;33.97;;;0.10;96.50;;;;;;5094532;28;20703;-84
2021/03/02 04:42:01;;;;;;;151.43;31.43;;;0.00;96.50;;;;;;5094549;28;20212;-84
2021/03/02 04:44:36;;;;;;;148.30;32.17;;;0.00;96.50;;;;;;5094545;28;20190;-84
2021/03/02 04:47:09;;;;;;;192.77;33.17;;;0.00;96.50;;;;;;5076292;28;20174;-84
2021/03/02 04:49:41;;;;;;;122.50;29.40;;;0.00;96.50;;;;;;5094412;28;20171;-84
2021/03/02 04:52:16;;;;;;;104.67;28.03;;;0.00;96.50;;;;;;5076110;28;20181;-84
2021/03/02 04:54:42;;;;;;;130.67;28.43;;;0.00;96.50;;;;;;5094409;28;20193;-84
2021/03/02 04:57:17;;;;;;;130.03;28.47;;;0.00;96.50;;;;;;5094083;28;20221;-84
2021/03/02 04:59:49;;;;;;;120.27;28.37;;;0.00;96.50;;;;;;5075960;28;20709;-84
2021/03/02 05:02:20;;;;;;;136.20;29.70;;;0.00;96.50;;;;;;5075962;28;20174;-84
2021/03/02 05:04:58;;;;;;;81.33;25.57;;;-0.10;96.50;;;;;;5076205;28;20194;-84
2021/03/02 05:07:31;;;;;;;69.43;23.87;;;0.00;96.50;;;;;;5094082;28;20607;-84
2021/03/02 05:10:02;;;;;;;48.87;21.63;;;0.00;96.50;;;;;;5075081;28;20645;-84
2021/03/02 05:12:37;;;;;;;35.23;20.20;;;0.00;96.50;;;;;;5094061;28;20171;-84
2021/03/02 05:15:09;;;;;;;52.10;21.43;;;0.10;96.50;;;;;;5075660;28;20194;-84
2021/03/02 05:17:39;;;;;;;35.80;19.00;;;0.10;96.50;;;;;;5075587;28;20233;-84
2021/03/02 05:20:13;;;;;;;38.87;18.63;;;0.10;96.50;;;;;;5093900;28;20635;-84
2021/03/02 05:22:48;;;;;;;38.20;16.73;;;0.10;96.50;;;;;;5094167;28;20724;-84
2021/03/02 05:25:14;;;;;;;33.23;17.27;;;0.10;96.50;;;;;;5075455;28;20230;-84
2021/03/02 05:27:41;;;;;;;46.53;17.67;;;0.10;96.40;;;;;;5093684;28;20216;-84
2021/03/02 05:30:11;;;;;;;61.17;16.70;;;0.10;96.40;;;;;;5093920;28;20171;-84
2021/03/02 05:32:41;;;;;;;49.03;16.00;;;0.00;96.30;;;;;;5075462;28;20179;-84
2021/03/02 05:35:14;;;;;;;46.37;16.43;;;0.00;96.20;;;;;;5093506;28;20197;-84
2021/03/02 05:37:47;;;;;;;61.03;18.40;;;-0.10;96.20;;;;;;5093513;28;20603;-84
2021/03/02 05:40:25;;;;;;;56.47;17.80;;;-0.10;96.10;;;;;;5075846;28;20175;-84
2021/03/02 05:42:51;;;;;;;120.90;21.70;;;-0.30;96.10;;;;;;5075329;28;20201;-84
2021/03/02 05:45:18;;;;;;;108.30;21.73;;;-0.60;96.00;;;;;;5093426;28;20218;-84
2021/03/02 05:47:54;;;;;;;65.93;20.73;;;-0.80;96.00;;;;;;5093736;28;20632;-84
2021/03/02 05:50:31;;;;;;;88.43;22.27;;;-0.80;96.10;;;;;;5093685;28;20172;-84
2021/03/02 05:53:04;;;;;;;65.50;21.67;;;-0.90;96.10;;;;;;5093473;28;20621;-84
2021/03/02 05:55:34;;;;;;;61.50;22.40;;;-1.00;96.20;;;;;;5093518;28;20201;-84
2021/03/02 05:58:09;;;;;;;70.47;23.40;;;-1.10;96.20;;;;;;5075217;28;20203;-84
2021/03/02 06:00:41;;;;;;;73.27;23.10;;;-1.10;96.30;;;;;;5075098;28;20586;-84
2021/03/02 06:03:16;;;;;;;122.20;25.17;;;-1.10;96.40;;;;;;5093240;28;20635;-84
2021/03/02 06:05:44;;;;;;;126.50;26.77;;;-1.10;96.50;;;;;;5093153;28;20739;-84
2021/03/02 06:08:20;;;;;;;98.27;26.73;;;-1.10;96.50;;;;;;5075117;28;20177;-84
2021/03/02 06:10:47;;;;;;;98.50;25.90;;;-1.00;96.60;;;;;;5093182;28;20251;-84
2021/03/02 06:13:30;;;;;;;78.23;23.03;;;-1.00;96.60;;;;;;5075123;28;20179;-84
2021/03/02 06:16:04;;;;;;;114.63;26.20;;;-1.00;96.70;;;;;;5093118;28;20674;-84
2021/03/02 06:18:46;;;;;;;123.80;30.30;;;-1.00;96.70;;;;;;5075648;28;20167;-84
2021/03/02 06:21:18;;;;;;;126.43;31.07;;;-0.90;96.70;;;;;;5075493;28;20175;-83
2021/03/02 06:23:51;;;;;;;106.87;29.27;;;-0.90;96.70;;;;;;5079033;28;20539;-83
2021/03/02 06:26:25;;;;;;;142.70;30.63;;;-0.90;96.70;;;;;;5097454;28;20170;-84
2021/03/02 06:28:57;;;;;;;119.17;27.77;;;-0.90;96.80;;;;;;5079007;28;20168;-84
2021/03/02 06:31:41;;;;;;;185.23;29.67;;;-0.80;96.70;;;;;;5097104;28;20165;-84
2021/03/02 06:34:17;;;;;;;94.50;25.23;;;-0.90;96.70;;;;;;5096996;28;20192;-83
2021/03/02 06:36:58;;;;;;;71.73;26.10;;;-0.70;96.70;;;;;;5078717;28;20199;-84
2021/03/02 06:39:45;;;;;;;52.00;22.97;;;-0.70;96.70;;;;;;5097009;28;20174;-84
2021/03/02 06:42:19;;;;;;;37.93;24.60;;;-0.70;96.70;;;;;;5097146;28;20176;-84
2021/03/02 06:45:02;;;;;;;44.53;24.53;;;-0.70;96.70;;;;;;5078599;28;20750;-84
2021/03/02 06:47:42;;;;;;;39.70;24.37;;;-0.60;96.70;;;;;;5078925;28;20256;-84
2021/03/02 06:50:13;;;;;;;59.50;24.57;;;-0.50;96.70;;;;;;5096841;28;20179;-84
2021/03/02 06:52:44;;;;;;;34.93;21.60;;;-0.50;96.70;;;;;;5078382;28;20727;-84
2021/03/02 06:55:24;;;;;;;47.67;20.30;;;-0.50;96.60;;;;;;5078386;28;20222;-83
2021/03/02 06:57:51;;;;;;;58.47;22.23;;;-0.50;96.60;;;;;;5078237;28;20600;-84
2021/03/02 07:00:39;;;;;;;67.67;20.63;;;-0.70;96.60;;;;;;5096943;28;20217;-84
2021/03/02 07:03:32;;;;;;;95.23;21.77;;;-0.80;96.50;;;;;;5079191;28;20264;-84
2021/03/02 07:06:06;;;;;;;92.67;20.40;;;-0.90;96.50;;;;;;5078278;28;20199;-84
2021/03/02 07:08:36;;;;;;;79.73;21.60;;;-1.00;96.50;;;;;;5096493;28;20163;-84
2021/03/02 07:11:18;;;;;;;98.33;21.43;;;-1.00;96.50;;;;;;5078162;28;20705;-84
2021/03/02 07:13:49;;;;;;;152.03;25.27;;;-0.90;96.40;;;;;;5096134;28;20630;-83
2021/03/02 07:16:23;;;;;;;97.87;25.10;;;-1.10;96.40;;;;;;5077930;28;20199;-84
2021/03/02 07:18:56;;;;;;;87.13;25.03;;;-1.10;96.40;;;;;;5077931;28;20172;-84
2021/03/02 07:21:34;;;;;;;215.90;32.73;;;-1.20;96.40;;;;;;5096393;28;20156;-84
2021/03/02 07:24:12;;;;;;;173.37;32.93;;;-1.20;96.40;;;;;;5095932;28;20335;-83
2021/03/02 07:26:49;;;;;;;174.53;30.37;;;-1.20;96.50;;;;;;5096014;28;20180;-84
2021/03/02 07:29:21;;;;;;;346.27;48.57;;;-1.20;96.50;;;;;;5077748;28;20654;-83
2021/03/02 07:31:48;;;;;;;260.53;70.03;;;-1.20;96.50;;;;;;5077759;28;20179;-84
2021/03/02 07:34:14;;;;;;;112.30;45.33;;;-1.20;96.50;;;;;;5076811;28;20271;-84
2021/03/02 07:36:50;;;;;;;231.07;64.10;;;-1.00;96.50;;;;;;5077632;28;20234;-83
2021/03/02 07:39:20;;;;;;;177.07;43.00;;;-0.90;96.50;;;;;;5095788;28;20164;-84
2021/03/02 07:41:52;;;;;;;234.33;44.77;;;-0.90;96.50;;;;;;5077628;28;20224;-84
2021/03/02 07:44:24;;;;;;;197.93;40.90;;;-0.80;96.50;;;;;;5077548;28;20194;-84
2021/03/02 07:47:01;;;;;;;51.27;30.93;;;-0.90;96.50;;;;;;5095559;28;20694;-84
2021/03/02 07:49:36;;;;;;;182.87;42.80;;;-0.90;96.50;;;;;;5077357;28;20269;-84
2021/03/02 07:52:12;;;;;;;169.50;43.37;;;-0.70;96.50;;;;;;5095473;28;20166;-83
2021/03/02 07:54:44;;;;;;;267.77;45.77;;;-0.70;96.50;;;;;;5095387;28;20246;-84
2021/03/02 07:57:21;;;;;;;331.87;49.97;;;-0.80;96.50;;;;;;5095285;28;20199;-84
2021/03/02 08:00:21;;;;;;;278.40;51.60;;;-0.70;96.50;;;;;;5077196;28;20176;-83
2021/03/02 08:03:24;;;;;;;179.33;39.10;;;-0.90;96.50;;;;;;5077179;28;20168;-84
2021/03/02 08:06:00;;;;;;;241.47;47.93;;;-0.80;96.50;;;;;;5095130;28;20192;-84
2021/03/02 08:08:27;;;;;;;166.63;42.30;;;-0.70;96.50;;;;;;5077043;28;20176;-83
2021/03/02 08:11:22;;;;;;;170.00;36.00;;;-0.70;96.60;;;;;;5095156;28;20517;-84
2021/03/02 08:13:57;;;;;;;204.27;39.60;;;-0.70;96.60;;;;;;5076282;28;20546;-83
2021/03/02 08:16:57;;;;;;;200.57;40.67;;;-0.60;96.60;;;;;;5077312;28;20195;-83
2021/03/02 08:19:37;;;;;;;165.43;36.57;;;-0.60;96.70;;;;;;5094951;28;20172;-83
2021/03/02 08:22:24;;;;;;;125.33;33.37;;;-0.40;96.80;;;;;;5076740;28;20200;-84
2021/03/02 08:25:04;;;;;;;158.90;34.03;;;-0.40;96.80;;;;;;5076513;28;20209;-83
2021/03/02 08:27:58;;;;;;;242.27;35.97;;;-0.20;96.80;;;;;;5094992;28;20179;-84
2021/03/02 08:30:34;;;;;;;165.93;34.10;;;-0.10;96.90;;;;;;5095053;28;20541;-84
2021/03/02 08:33:10;;;;;;;229.60;38.90;;;0.00;96.90;;;;;;5076604;28;20180;-84
2021/03/02 08:35:47;;;;;;;272.90;43.07;;;0.00;96.90;;;;;;5076536;28;20200;-85
2021/03/02 08:38:19;;;;;;;217.87;41.47;;;0.00;97.00;;;;;;5094615;28;20643;-85
2021/03/02 08:40:48;;;;;;;245.30;41.83;;;0.10;97.00;;;;;;5094606;28;20172;-84
2021/03/02 08:43:26;;;;;;;365.70;46.90;;;0.10;97.00;;;;;;5094488;28;20180;-84
2021/03/02 08:46:01;;;;;;;277.23;44.40;;;0.30;97.10;;;;;;5076112;28;20650;-84
2021/03/02 08:48:34;;;;;;;375.57;53.40;;;0.30;97.10;;;;;;5076174;28;20171;-84
2021/03/02 08:51:08;;;;;;;332.07;54.93;;;0.50;97.10;;;;;;5094370;28;20190;-84
2021/03/02 08:53:47;;;;;;;283.13;53.90;;;0.50;97.10;;;;;;5076447;28;20546;-84
2021/03/02 08:56:24;;;;;;;441.83;64.97;;;0.60;97.10;;;;;;5094577;28;20197;-85
2021/03/02 08:59:04;;;;;;;383.40;64.67;;;0.60;97.10;;;;;;5075979;28;20265;-85
2021/03/02 09:01:34;;;;;;;384.23;59.80;;;0.80;97.10;;;;;;5075999;28;20405;-84
2021/03/02 09:04:11;;;;;;;396.50;61.70;;;0.80;97.20;;;;;;5093991;28;20285;-84
2021/03/02 09:06:42;;;;;;;422.23;63.93;;;0.90;97.20;;;;;;5094126;28;20242;-85
2021/03/02 09:09:16;;;;;;;489.63;69.73;;;1.00;97.20;;;;;;5076445;28;20237;-85
2021/03/02 09:12:03;;;;;;;630.13;80.37;;;1.10;97.20;;;;;;5075867;28;20547;-85
2021/03/02 09:14:33;;;;;;;474.30;67.00;;;1.20;97.20;;;;;;5075773;28;20212;-84
2021/03/02 09:17:06;;;;;;;486.67;68.23;;;1.30;97.20;;;;;;5093777;28;20217;-84
2021/03/02 09:19:40;;;;;;;482.93;67.13;;;1.40;97.20;;;;;;5075604;28;20174;-84
2021/03/02 09:22:13;;;;;;;486.17;68.47;;;1.50;97.30;;;;;;5075742;28;20208;-84
2021/03/02 09:24:55;;;;;;;681.00;84.83;;;1.70;97.30;;;;;;5093577;28;20206;-84
2021/03/02 09:27:37;;;;;;;439.70;69.93;;;1.80;97.30;;;;;;5094071;28;20192;-84
2021/03/02 09:30:12;;;;;;;559.53;81.00;;;1.70;97.30;;;;;;5075574;28;20174;-84
2021/03/02 09:32:45;;;;;;;525.73;78.10;;;1.80;97.30;;;;;;5093653;28;20170;-84
2021/03/02 09:35:21;;;;;;;623.73;88.13;;;1.80;97.30;;;;;;5075313;28;20198;-84
2021/03/02 09:37:57;;;;;;;493.80;88.67;;;1.80;97.30;;;;;;5093467;28;20243;-84
2021/03/02 09:40:24;;;;;;;585.10;92.93;;;2.00;97.30;;;;;;5093765;28;20163;-84
2021/03/02 09:42:57;;;;;;;663.80;105.40;;;2.10;97.30;;;;;;5093521;28;20184;-84
2021/03/02 09:45:23;;;;;;;698.90;112.37;;;2.30;97.40;;;;;;5075195;28;20195;-85
2021/03/02 09:48:05;;;;;;;560.87;98.87;;;2.40;97.40;;;;;;5075399;28;20178;-85
2021/03/02 09:50:38;;;;;;;528.87;110.73;;;2.20;97.40;;;;;;5094081;28;20175;-86
2021/03/02 09:53:14;;;;;;;401.20;102.27;;;2.20;97.40;;;;;;5075738;28;20191;-85
2021/03/02 09:55:50;;;;;;;444.70;107.87;;;2.40;97.40;;;;;;5075670;28;20545;-85
2021/03/02 09:58:20;;;;;;;422.37;112.70;;;2.40;97.40;;;;;;5075733;28;20233;-85
2021/03/02 10:00:46;;;;;;;447.90;114.20;;;2.60;97.40;;;;;;5076119;28;20224;-86
2021/03/02 10:03:26;;;;;;;320.43;115.07;;;2.60;97.40;;;;;;5075664;28;20182;-85
2021/03/02 10:06:01;;;;;;;289.40;114.80;;;2.80;97.40;;;;;;5075644;28;20654;-85
2021/03/02 10:08:38;;;;;;;288.00;109.30;;;2.90;97.40;;;;;;5093582;28;20172;-85
2021/03/02 10:11:11;;;;;;;319.80;114.37;;;3.00;97.40;;;;;;5075527;28;20193;-85
2021/03/02 10:14:08;;;;;;;299.33;102.20;;;3.30;97.40;;;;;;5093823;28;20640;-85
2021/03/02 10:16:41;;;;;;;291.30;98.03;;;3.30;97.40;;;;;;5093178;28;20200;-85
2021/03/02 10:19:19;;;;;;;276.03;95.73;;;3.40;97.40;;;;;;5093200;28;20167;-86
2021/03/02 10:21:51;;;;;;;243.93;92.83;;;3.50;97.40;;;;;;5093244;28;20147;-86
2021/03/02 10:24:30;;;;;;;263.97;97.73;;;3.60;97.40;;;;;;5093025;28;20689;-86
2021/03/02 10:27:10;;;;;;;249.43;94.40;;;3.70;97.40;;;;;;5074976;28;20215;-86
2021/03/02 10:29:48;;;;;;;231.03;88.37;;;3.80;97.40;;;;;;5093147;28;20187;-86
2021/03/02 10:32:18;;;;;;;239.73;89.03;;;4.00;97.40;;;;;;5074915;28;20660;-86
2021/03/02 10:34:45;;;;;;;237.50;84.63;;;4.30;97.40;;;;;;5093466;28;20300;-86
2021/03/02 10:37:13;;;;;;;218.50;84.93;;;4.70;97.30;;;;;;5092967;28;20229;-86
2021/03/02 10:39:43;;;;;;;216.43;85.07;;;4.90;97.30;;;;;;5093109;28;20174;-86
2021/03/02 10:42:12;;;;;;;207.53;82.73;;;5.00;97.20;;;;;;5074841;28;20174;-86
2021/03/02 10:44:40;;;;;;;200.07;78.43;;;5.00;97.00;;;;;;5074916;28;20190;-86
2021/03/02 10:47:16;;;;;;;190.47;76.27;;;5.30;97.00;;;;;;5074907;28;20179;-85
2021/03/02 10:52:11;;;;;;;166.53;68.77;;;5.60;96.60;;;;;;5186372;22;20238;-84
2021/03/02 10:54:37;;;;;;;154.57;66.93;;;6.00;96.10;;;;;;5092848;28;20168;-84
2021/03/02 10:57:02;;;;;;;140.73;68.50;;;6.10;95.30;;;;;;5092689;28;20194;-83
2021/03/02 10:59:28;;;;;;;144.77;70.70;;;6.30;94.30;;;;;;5092902;28;20708;-84
2021/03/02 11:01:54;;;;;;;112.03;61.70;;;6.60;94.20;;;;;;5074464;28;20192;-84
2021/03/02 11:04:31;;;;;;;95.37;52.50;;;6.60;92.70;;;;;;5092667;28;20177;-84
2021/03/02 11:06:57;;;;;;;81.17;47.43;;;6.70;93.30;;;;;;5075186;28;20169;-84
2021/03/02 11:09:26;;;;;;;79.73;47.83;;;6.70;93.10;;;;;;5095223;28;20248;-84
2021/03/02 11:11:52;;;;;;;67.60;40.93;;;6.80;93.20;;;;;;5078311;28;20194;-83
2021/03/02 11:14:21;;;;;;;62.73;37.43;;;6.80;93.10;;;;;;5096651;28;20607;-83
2021/03/02 11:16:51;;;;;;;62.77;36.20;;;6.90;92.50;;;;;;5078150;28;20278;-83
2021/03/02 11:19:28;;;;;;;64.10;38.20;;;7.00;92.00;;;;;;5096769;28;20311;-84
2021/03/02 11:21:54;;;;;;;54.57;33.07;;;7.10;91.40;;;;;;5097875;28;20185;-83
2021/03/02 11:24:34;;;;;;;57.37;33.47;;;7.20;90.70;;;;;;5096845;28;20697;-84
2021/03/02 11:27:10;;;;;;;52.40;32.03;;;7.30;90.20;;;;;;5097078;28;20181;-84
2021/03/02 11:29:43;;;;;;;59.77;34.53;;;7.60;89.90;;;;;;5077781;28;20178;-83
2021/03/02 11:32:20;;;;;;;54.97;31.93;;;7.60;87.10;;;;;;5077849;28;20202;-83
2021/03/02 11:34:54;;;;;;;44.70;29.20;;;7.80;87.20;;;;;;5078820;28;20252;-83
2021/03/02 11:37:31;;;;;;;52.13;29.40;;;7.90;88.20;;;;;;5077934;28;20331;-83
2021/03/02 11:40:04;;;;;;;45.47;28.17;;;8.00;86.80;;;;;;5077595;28;20170;-83
2021/03/02 11:42:38;;;;;;;49.10;27.57;;;8.10;84.90;;;;;;5096166;28;20635;-83
2021/03/02 11:45:08;;;;;;;45.77;26.43;;;8.10;84.10;;;;;;5078074;28;20177;-84
2021/03/02 11:47:39;;;;;;;41.70;26.17;;;8.30;83.30;;;;;;5077945;28;20551;-83
2021/03/02 11:50:12;;;;;;;44.87;28.37;;;8.40;82.40;;;;;;5095783;28;20182;-83
2021/03/02 11:52:45;;;;;;;42.87;26.73;;;8.50;83.30;;;;;;5096211;28;20179;-83
2021/03/02 11:55:12;;;;;;;46.43;26.63;;;8.60;82.40;;;;;;5077630;28;20599;-84
2021/03/02 11:57:47;;;;;;;42.57;25.97;;;8.80;81.60;;;;;;5095870;28;20221;-83
2021/03/02 12:00:25;;;;;;;39.47;25.43;;;8.80;80.70;;;;;;5096265;28;20186;-83
2021/03/02 12:03:01;;;;;;;42.13;26.33;;;8.80;80.70;;;;;;5095630;28;20196;-83
2021/03/02 12:05:34;;;;;;;41.83;25.30;;;8.90;80.20;;;;;;5077148;28;20205;-83
2021/03/02 12:08:08;;;;;;;45.67;25.77;;;8.80;79.80;;;;;;5077234;28;20654;-83
2021/03/02 12:10:41;;;;;;;43.77;24.17;;;9.00;79.60;;;;;;5095296;28;20731;-83
2021/03/02 12:13:18;;;;;;;48.33;24.27;;;9.00;77.20;;;;;;5095266;28;20266;-83
2021/03/02 12:15:53;;;;;;;41.60;25.57;;;9.00;79.50;;;;;;5095231;28;20522;-84
2021/03/02 12:18:26;;;;;;;40.33;24.90;;;9.30;78.70;;;;;;5095217;28;20163;-84
2021/03/02 12:20:51;;;;;;;36.40;24.30;;;9.40;78.40;;;;;;5076361;28;20198;-84
2021/03/02 12:23:19;;;;;;;33.97;22.37;;;9.40;76.90;;;;;;5095431;28;20167;-83
2021/03/02 12:25:45;;;;;;;31.37;21.67;;;9.70;77.00;;;;;;5094945;28;20178;-83
2021/03/02 12:28:10;;;;;;;34.77;23.00;;;9.70;76.30;;;;;;5094940;28;20174;-82
2021/03/02 12:30:36;;;;;;;46.53;24.30;;;9.70;74.70;;;;;;5094893;28;20607;-84
2021/03/02 12:33:08;;;;;;;36.97;23.77;;;9.80;75.60;;;;;;5076790;28;20179;-83
2021/03/02 12:35:33;;;;;;;46.77;26.13;;;9.80;74.50;;;;;;5095072;28;20175;-83
2021/03/02 12:38:00;;;;;;;45.60;25.13;;;9.80;73.80;;;;;;5076627;28;20646;-83
2021/03/02 12:40:34;;;;;;;43.57;25.00;;;9.90;72.80;;;;;;5094722;28;20645;-84
2021/03/02 12:43:11;;;;;;;39.83;25.97;;;10.00;73.60;;;;;;5094890;28;20171;-84
2021/03/02 12:45:44;;;;;;;40.90;24.77;;;10.10;73.90;;;;;;5094956;28;20179;-84
2021/03/02 12:48:19;;;;;;;32.50;21.90;;;10.30;75.10;;;;;;5076372;28;20179;-83
2021/03/02 12:50:54;;;;;;;35.63;23.07;;;10.30;69.60;;;;;;5076520;28;20616;-83
2021/03/02 12:53:20;;;;;;;36.87;22.57;;;10.50;72.20;;;;;;5094765;28;20168;-83
2021/03/02 12:55:46;;;;;;;34.57;23.03;;;10.40;69.90;;;;;;5076296;28;20272;-83
2021/03/02 12:58:15;;;;;;;35.60;24.67;;;10.50;69.70;;;;;;5094383;28;20210;-83
2021/03/02 13:00:41;;;;;;;37.43;23.93;;;10.70;71.00;;;;;;5094245;28;20273;-83
2021/03/02 13:03:07;;;;;;;42.13;24.53;;;10.80;71.60;;;;;;5094340;28;20194;-82
2021/03/02 13:05:44;;;;;;;44.17;25.47;;;10.80;70.30;;;;;;5094698;28;20174;-83